首页
METAR-TAF:

METAR-TAF

机场 :

托尔托拉岛, 英屬維爾京群島

纬度: 18-27N, 经度: 064-32W, 海拔: 4米

当前天气观测

该预报发布于8小时和32分钟前的02:00 UTC
风速11节,风向
温度 26°C
湿度 84%
气压 1016 hPa
能見度: 16.1公里
少量云层高于1800英尺
小雨

METAR: TUPJ 220200Z 08011KT 10SM -RA FEW018 26/23 A2999 RMK Q1015 VIS16KM

时间: 06:32 (10:32 UTC)

预报

该预报发布于11小时和32分钟前的23:00 UTC
预报有效从22日的 00点(UTC)到 22日的 24点(UTC)
风速9节,风向
能见度10公里或以上
散云层高于1800英尺
几率 40% :
短暂存在
从 22日的 00点(UTC)到 22日的 12点(UTC)
能見度: 4800
阵雨,

TAF: TUPJ 212300Z 2200/2224 10009KT 9999 SCT018 PROB40 TEMPO 2200/2212 4800 SHRA

超过4000个机场的气象观测和天气预报(METAR&TAF报告)。

可查询的气象台以黄色和红色小点在地图上表示。

将鼠标移到小点上方,可查看气象台名称。

然后点击查看天气观测和预报。

如需切换地图:点击带黑十字的绿色按钮放大地图;点击带横线的绿色按钮缩小地图;或者点击绿色箭头查看邻近地区的地图。


METAR-TAF: